Time;durP1;ratioP1;P1;durP2;ratioP2;P2;SDS_P1;SDS_P2;PMS_P1;PMS_P2;Temp;Humidity;BMP_temperature;BMP_pressure;BME280_temperature;BME280_humidity;BME280_pressure;Samples;Min_cycle;Max_cycle;Signal;HPM_P1;HPM_P2
2022/09/25 00:01:15;;;;;;;10.93;2.90;;;;;;;12.57;100.00;101423.31;5072264;28;20070;-51
2022/09/25 00:03:43;;;;;;;10.07;3.00;;;;;;;12.52;100.00;101431.50;5074401;28;20452;-52
2022/09/25 00:06:13;;;;;;;11.50;3.40;;;;;;;12.47;100.00;101431.47;5074208;28;20044;-51
2022/09/25 00:08:41;;;;;;;7.90;2.13;;;;;;;12.44;100.00;101440.22;5067962;28;20045;-55
2022/09/25 00:11:12;;;;;;;10.13;2.80;;;;;;;12.46;100.00;101438.84;5062069;28;20495;-52
2022/09/25 00:13:41;;;;;;;11.63;2.85;;;;;;;12.50;100.00;101444.59;5087593;28;20461;-53
2022/09/25 00:16:11;;;;;;;10.18;2.65;;;;;;;12.54;100.00;101442.97;5073073;28;20093;-52
2022/09/25 00:21:32;;;;;;;9.23;2.92;;;;;;;12.63;100.00;101444.13;5064877;28;20101;-51
2022/09/25 00:24:03;;;;;;;10.75;2.75;;;;;;;12.60;100.00;101444.63;5067501;28;20053;-52
2022/09/25 00:26:33;;;;;;;9.07;2.95;;;;;;;12.58;100.00;101446.84;5063454;28;20090;-52
2022/09/25 00:29:02;;;;;;;8.50;2.58;;;;;;;12.57;100.00;101450.66;5074103;28;20041;-53
2022/09/25 00:31:30;;;;;;;9.95;3.17;;;;;;;12.55;100.00;101441.88;5074857;28;20057;-53
2022/09/25 00:34:00;;;;;;;12.00;2.80;;;;;;;12.59;100.00;101437.53;5073662;28;20044;-53
2022/09/25 00:36:29;;;;;;;9.25;2.58;;;;;;;12.59;100.00;101440.28;5068179;28;20069;-52
2022/09/25 00:38:57;;;;;;;7.20;2.47;;;;;;;12.58;100.00;101436.72;5071547;28;20052;-53
2022/09/25 00:41:27;;;;;;;9.30;2.85;;;;;;;12.61;100.00;101437.28;5072528;28;20093;-52
2022/09/25 00:43:56;;;;;;;9.55;3.17;;;;;;;12.62;100.00;101437.00;5062578;28;20098;-52
2022/09/25 00:46:31;;;;;;;8.15;2.78;;;;;;;12.60;100.00;101439.16;5068092;28;20445;-53
2022/09/25 00:49:28;;;;;;;11.57;2.80;;;;;;;12.53;100.00;101442.16;5070485;28;20045;-55
2022/09/25 00:52:02;;;;;;;8.93;2.63;;;;;;;12.49;100.00;101440.22;5072150;28;20495;-52
2022/09/25 00:54:34;;;;;;;6.38;2.42;;;;;;;12.47;100.00;101445.94;5072286;28;20402;-50
2022/09/25 00:57:05;;;;;;;9.25;3.17;;;;;;;12.41;100.00;101449.75;5052912;28;20403;-53
2022/09/25 00:59:37;;;;;;;10.82;2.85;;;;;;;12.37;100.00;101451.38;5067595;28;20098;-52
2022/09/25 01:02:08;;;;;;;12.45;3.00;;;;;;;12.33;100.00;101450.25;5058558;28;20044;-53
2022/09/25 01:04:36;;;;;;;7.63;2.70;;;;;;;12.31;100.00;101453.25;5072383;28;20040;-53
2022/09/25 01:07:08;;;;;;;9.40;2.80;;;;;;;12.27;100.00;101440.38;5072218;28;20079;-54
2022/09/25 01:09:36;;;;;;;14.43;2.95;;;;;;;12.28;100.00;101442.84;5052753;28;20449;-54
2022/09/25 01:12:04;;;;;;;8.15;2.78;;;;;;;12.26;100.00;101449.66;5069838;28;20394;-55
2022/09/25 01:14:32;;;;;;;11.32;2.97;;;;;;;12.23;100.00;101456.47;5072875;28;20048;-55
2022/09/25 01:17:13;;;;;;;11.32;3.03;;;;;;;12.20;100.00;101459.72;5069386;28;20033;-49
2022/09/25 01:20:37;;;;;;;14.40;3.45;;;;;;;12.16;100.00;101453.13;5060841;28;20051;-53
2022/09/25 01:23:16;;;;;;;10.47;3.47;;;;;;;12.17;100.00;101456.69;4995414;28;20048;-52
2022/09/25 01:26:13;;;;;;;13.27;3.05;;;;;;;12.15;100.00;101449.59;5001732;28;20046;-51
2022/09/25 01:29:10;;;;;;;9.23;3.00;;;;;;;12.16;100.00;101453.13;5060941;28;20060;-52
2022/09/25 01:31:41;;;;;;;10.20;2.83;;;;;;;12.16;100.00;101450.41;5070180;28;20041;-51
2022/09/25 01:34:57;;;;;;;11.68;2.60;;;;;;;12.17;100.00;101452.06;5072809;28;20803;-51
2022/09/25 01:37:53;;;;;;;8.95;2.92;;;;;;;12.18;100.00;101464.63;5071695;28;20109;-56
2022/09/25 01:40:23;;;;;;;8.02;2.55;;;;;;;12.17;100.00;101460.28;5051064;28;20098;-53
2022/09/25 01:43:11;;;;;;;9.20;2.88;;;;;;;12.13;100.00;101467.34;5062954;28;20041;-53
2022/09/25 01:45:45;;;;;;;9.85;2.80;;;;;;;12.11;100.00;101455.84;5056960;28;20036;-52
2022/09/25 01:48:16;;;;;;;11.80;2.90;;;;;;;12.13;100.00;101461.88;5052061;28;20043;-54
2022/09/25 01:50:55;;;;;;;11.35;3.00;;;;;;;12.10;100.00;101470.59;5070025;28;20515;-53
2022/09/25 01:53:27;;;;;;;9.45;2.83;;;;;;;12.07;100.00;101465.63;5055627;28;20040;-52
2022/09/25 01:56:00;;;;;;;11.35;3.03;;;;;;;12.11;100.00;101469.50;5071462;28;20139;-56
2022/09/25 01:58:42;;;;;;;10.85;3.15;;;;;;;12.13;100.00;101470.06;5071299;28;20059;-55
2022/09/25 02:01:19;;;;;;;11.05;2.78;;;;;;;12.13;100.00;101475.53;5068780;28;20043;-52
2022/09/25 02:04:00;;;;;;;12.93;2.80;;;;;;;12.13;100.00;101467.34;5070112;28;20498;-52
2022/09/25 02:06:27;;;;;;;8.02;2.72;;;;;;;12.07;100.00;101462.91;5071795;28;20043;-52
2022/09/25 02:09:01;;;;;;;11.57;3.03;;;;;;;12.05;100.00;101460.47;5071796;28;20514;-50
2022/09/25 02:11:33;;;;;;;10.25;3.35;;;;;;;12.07;100.00;101469.19;5051980;28;20067;-52
2022/09/25 02:14:14;;;;;;;7.95;2.58;;;;;;;12.07;100.00;101462.91;5061290;28;20094;-55
2022/09/25 02:16:43;;;;;;;12.48;3.20;;;;;;;12.06;100.00;101466.75;5022335;28;20098;-54
2022/09/25 02:22:22;;;;;;;10.00;2.92;;;;;;;12.10;100.00;101459.69;5059162;28;20047;-52
2022/09/25 02:24:56;;;;;;;8.48;2.45;;;;;;;12.10;100.00;101456.94;5060699;28;20041;-55
2022/09/25 02:27:28;;;;;;;6.95;2.40;;;;;;;12.12;100.00;101457.47;5071878;28;20049;-52
2022/09/25 02:29:57;;;;;;;7.75;2.60;;;;;;;12.10;100.00;101467.88;5067631;28;20048;-49
2022/09/25 02:32:29;;;;;;;7.57;2.70;;;;;;;12.04;100.00;101469.72;5075952;28;20043;-51
2022/09/25 02:34:58;;;;;;;7.22;2.60;;;;;;;12.00;100.00;101462.31;5074432;28;20044;-53
2022/09/25 02:37:26;;;;;;;11.00;2.97;;;;;;;12.01;100.00;101462.06;5067689;28;20135;-53
2022/09/25 02:39:57;;;;;;;12.20;2.60;;;;;;;12.02;100.00;101469.16;5065013;28;20052;-53
2022/09/25 02:42:39;;;;;;;9.32;2.70;;;;;;;11.99;100.00;101468.88;5075138;28;20044;-51
2022/09/25 02:45:21;;;;;;;10.27;2.63;;;;;;;11.98;100.00;101469.94;5063804;28;20043;-51
2022/09/25 02:47:55;;;;;;;7.75;2.50;;;;;;;11.98;100.00;101464.47;5066637;28;20037;-54
2022/09/25 02:50:45;;;;;;;9.40;2.90;;;;;;;11.99;100.00;101463.41;5075922;28;20495;-53
2022/09/25 02:53:28;;;;;;;8.73;2.67;;;;;;;11.93;100.00;101457.09;5062767;28;20090;-54
2022/09/25 02:56:10;;;;;;;9.05;2.42;;;;;;;11.89;100.00;101454.03;5058123;28;20470;-50
2022/09/25 02:59:00;;;;;;;6.35;2.20;;;;;;;11.83;100.00;101446.03;5069924;28;20043;-52
2022/09/25 03:01:31;;;;;;;8.80;2.60;;;;;;;11.79;100.00;101448.47;5072000;28;20049;-52
2022/09/25 03:04:00;;;;;;;7.97;2.75;;;;;;;11.79;100.00;101443.03;5073595;28;20098;-51
2022/09/25 03:06:28;;;;;;;10.35;2.58;;;;;;;11.81;100.00;101454.50;5072783;28;20042;-51
2022/09/25 03:08:56;;;;;;;8.20;2.40;;;;;;;11.78;100.00;101444.09;5075147;28;20055;-51
2022/09/25 03:11:28;;;;;;;6.82;2.58;;;;;;;11.73;100.00;101444.06;5074295;28;20081;-52
2022/09/25 03:14:00;;;;;;;10.10;2.72;;;;;;;11.73;100.00;101446.78;5044992;28;20053;-51
2022/09/25 03:16:55;;;;;;;6.47;2.20;;;;;;;11.73;100.00;101441.31;5066214;28;20033;-51
2022/09/25 03:19:27;;;;;;;7.35;2.40;;;;;;;11.73;100.00;101452.25;5073580;28;20055;-51
2022/09/25 03:21:55;;;;;;;9.30;2.80;;;;;;;11.68;100.00;101444.81;5075030;28;20119;-51
2022/09/25 03:24:22;;;;;;;7.70;3.17;;;;;;;11.65;100.00;101450.00;5068358;28;20388;-52
2022/09/25 03:26:50;;;;;;;8.45;2.58;;;;;;;11.61;100.00;101448.84;5062628;28;20499;-51
2022/09/25 03:29:18;;;;;;;8.52;2.78;;;;;;;11.56;100.00;101443.34;5075433;28;20044;-53
2022/09/25 03:31:45;;;;;;;9.68;3.13;;;;;;;11.54;100.00;101450.97;5073961;28;20105;-51
2022/09/25 03:34:15;;;;;;;10.48;2.78;;;;;;;11.51;100.00;101447.69;5075032;28;20523;-49
2022/09/25 03:36:48;;;;;;;8.70;3.10;;;;;;;11.49;100.00;101449.84;5069858;28;20045;-53
2022/09/25 03:39:16;;;;;;;8.90;3.38;;;;;;;11.47;100.00;101449.31;5068719;28;20040;-55
2022/09/25 03:41:44;;;;;;;10.35;3.53;;;;;;;11.49;100.00;101449.84;5065610;28;20045;-53
2022/09/25 03:44:12;;;;;;;9.50;2.95;;;;;;;11.48;100.00;101450.94;5068215;28;20045;-54
2022/09/25 03:46:40;;;;;;;10.88;2.95;;;;;;;11.45;100.00;101443.28;5076739;28;20095;-52
2022/09/25 03:49:09;;;;;;;8.93;2.72;;;;;;;11.45;100.00;101445.19;5075691;28;20105;-52
2022/09/25 03:51:37;;;;;;;8.80;3.17;;;;;;;11.41;100.00;101444.88;5071147;28;20048;-50
2022/09/25 03:54:05;;;;;;;6.82;2.38;;;;;;;11.41;100.00;101444.88;5072250;28;20492;-51
2022/09/25 03:56:33;;;;;;;9.55;2.75;;;;;;;11.42;100.00;101440.22;5066941;28;20037;-51
2022/09/25 03:59:01;;;;;;;6.38;2.80;;;;;;;11.43;100.00;101444.63;5068018;28;20037;-52
2022/09/25 04:01:28;;;;;;;7.97;2.58;;;;;;;11.41;100.00;101449.50;5073279;28;20043;-50
2022/09/25 04:03:56;;;;;;;10.00;3.00;;;;;;;11.36;100.00;101455.72;5060718;28;20105;-49
2022/09/25 04:06:25;;;;;;;7.32;2.40;;;;;;;11.32;100.00;101445.59;5062422;28;20048;-50
2022/09/25 04:08:54;;;;;;;9.15;2.92;;;;;;;11.28;100.00;101450.72;5073186;28;20052;-49
2022/09/25 04:11:23;;;;;;;7.68;3.00;;;;;;;11.27;100.00;101443.63;5061636;28;20101;-51
2022/09/25 04:13:51;;;;;;;7.80;2.80;;;;;;;11.24;100.00;101455.06;5069382;28;20101;-51
2022/09/25 04:16:19;;;;;;;7.50;3.05;;;;;;;11.20;100.00;101443.00;5062343;28;20041;-51
2022/09/25 04:18:48;;;;;;;9.88;3.28;;;;;;;11.19;100.00;101444.09;5074073;28;20066;-51
2022/09/25 04:21:16;;;;;;;7.90;2.90;;;;;;;11.18;100.00;101445.16;5072370;28;20070;-50
2022/09/25 04:24:47;;;;;;;8.50;3.17;;;;;;;11.15;100.00;101443.78;5066089;28;20487;-50
2022/09/25 04:26:34;;;;;;;7.88;3.15;;;;;;;11.12;100.00;101451.66;5073251;28;20105;-53
2022/09/25 04:29:02;;;;;;;8.45;3.53;;;;;;;11.07;100.00;101436.88;5068864;28;20045;-53
2022/09/25 04:31:31;;;;;;;6.95;3.00;;;;;;;11.08;100.00;101438.53;5073668;28;20085;-50
2022/09/25 04:33:59;;;;;;;7.03;3.10;;;;;;;11.12;100.00;101446.22;5052224;28;20036;-50
2022/09/25 04:36:26;;;;;;;10.68;3.65;;;;;;;11.11;100.00;101447.28;5070317;28;20045;-50
2022/09/25 04:38:54;;;;;;;8.32;3.20;;;;;;;11.11;100.00;101439.09;5073794;28;20055;-51
2022/09/25 04:41:22;;;;;;;8.77;3.38;;;;;;;11.07;100.00;101439.59;5056956;28;20044;-49
2022/09/25 04:43:49;;;;;;;7.90;3.13;;;;;;;11.07;100.00;101442.34;5061031;28;20049;-50
2022/09/25 04:46:17;;;;;;;8.38;3.20;;;;;;;11.08;100.00;101443.16;5069346;28;20045;-50
2022/09/25 04:48:49;;;;;;;7.03;3.13;;;;;;;11.04;100.00;101445.59;5056332;28;20044;-52
2022/09/25 04:51:17;;;;;;;10.13;3.60;;;;;;;11.03;100.00;101448.56;5073389;28;20414;-50
2022/09/25 04:53:44;;;;;;;8.40;3.28;;;;;;;11.03;100.00;101448.56;5048922;28;20037;-49
2022/09/25 04:56:12;;;;;;;7.82;3.38;;;;;;;10.99;100.00;101452.88;5071981;28;20052;-51
2022/09/25 04:58:47;;;;;;;8.10;3.10;;;;;;;10.96;100.00;101448.75;5071757;28;20490;-50
2022/09/25 05:01:15;;;;;;;6.75;3.47;;;;;;;10.94;100.00;101448.16;5072428;28;20498;-50
2022/09/25 05:03:46;;;;;;;5.78;2.90;;;;;;;10.91;100.00;101445.97;5050207;28;20041;-52
2022/09/25 05:06:14;;;;;;;9.57;3.80;;;;;;;10.93;100.00;101434.81;5054967;28;20051;-52
2022/09/25 05:08:41;;;;;;;9.05;3.50;;;;;;;10.94;100.00;101433.72;5067540;28;20037;-54
2022/09/25 05:11:10;;;;;;;8.80;3.35;;;;;;;10.95;100.00;101430.75;5065103;28;20422;-50
2022/09/25 05:13:37;;;;;;;7.70;3.42;;;;;;;10.95;100.00;101441.66;5067783;28;20517;-51
2022/09/25 05:16:05;;;;;;;12.40;3.75;;;;;;;10.93;100.00;101437.53;5073173;28;20051;-51
2022/09/25 05:18:33;;;;;;;7.70;3.00;;;;;;;10.93;100.00;101427.44;5063699;28;20533;-53
2022/09/25 05:21:03;;;;;;;6.47;3.10;;;;;;;10.94;100.00;101434.53;5055636;28;20071;-50
2022/09/25 05:23:31;;;;;;;9.38;3.63;;;;;;;10.94;100.00;101439.19;5067307;28;20062;-51
2022/09/25 05:26:01;;;;;;;8.60;3.42;;;;;;;10.91;100.00;101429.59;5073332;28;20052;-51
2022/09/25 05:28:30;;;;;;;8.85;3.22;;;;;;;10.90;100.00;101425.25;5070130;28;20040;-49
2022/09/25 05:31:02;;;;;;;8.43;3.53;;;;;;;10.88;100.00;101428.22;5071157;28;20044;-51
2022/09/25 05:33:34;;;;;;;7.68;3.50;;;;;;;10.86;100.00;101432.28;5070030;28;20040;-51
2022/09/25 05:36:03;;;;;;;7.38;3.35;;;;;;;10.83;100.00;101430.88;5071535;28;20414;-50
2022/09/25 05:38:32;;;;;;;7.82;3.35;;;;;;;10.79;100.00;101427.00;5068915;28;20041;-53
2022/09/25 05:41:09;;;;;;;6.90;3.17;;;;;;;10.75;100.00;101428.63;5071294;28;20047;-52
2022/09/25 05:43:43;;;;;;;7.82;3.75;;;;;;;10.73;100.00;101433.50;5070258;28;20049;-51
2022/09/25 05:46:11;;;;;;;12.02;3.75;;;;;;;10.68;100.00;101440.75;5059685;28;20036;-50
2022/09/25 05:48:39;;;;;;;9.88;3.42;;;;;;;10.70;100.00;101435.91;5072462;28;20044;-48
2022/09/25 05:51:06;;;;;;;8.18;3.38;;;;;;;10.73;100.00;101438.13;5060095;28;20045;-49
2022/09/25 05:53:34;;;;;;;8.18;3.25;;;;;;;10.74;100.00;101445.22;5064859;28;20108;-51
2022/09/25 05:56:04;;;;;;;7.43;3.50;;;;;;;10.73;100.00;101444.41;4367867;28;10000692;-49
2022/09/25 05:58:33;;;;;;;5.85;3.30;;;;;;;10.71;100.00;101441.09;5066375;28;20040;-49
2022/09/25 06:01:02;;;;;;;6.82;3.28;;;;;;;10.68;100.00;101443.50;5068241;28;20057;-51
2022/09/25 06:03:30;;;;;;;10.52;4.50;;;;;;;10.69;100.00;101445.16;5065431;28;20029;-53
2022/09/25 06:05:59;;;;;;;8.85;4.40;;;;;;;10.71;100.00;101445.72;5068186;28;20040;-49
2022/09/25 06:08:29;;;;;;;8.77;4.30;;;;;;;10.71;100.00;101451.19;5071876;28;20516;-49
2022/09/25 06:11:02;;;;;;;10.05;4.00;;;;;;;10.71;100.00;101443.81;5060666;28;20053;-50
2022/09/25 06:13:33;;;;;;;7.35;4.25;;;;;;;10.70;100.00;101450.34;5071348;28;20447;-50
2022/09/25 06:16:01;;;;;;;6.10;4.00;;;;;;;10.69;100.00;101451.44;5067580;28;20052;-49
2022/09/25 06:18:29;;;;;;;6.63;4.22;;;;;;;10.69;100.00;101448.69;5071650;28;20498;-49
2022/09/25 06:21:03;;;;;;;9.05;4.50;;;;;;;10.72;100.00;101450.91;5072966;28;20048;-52
2022/09/25 06:23:30;;;;;;;6.97;4.18;;;;;;;10.74;100.00;101450.66;5067119;28;20568;-51
2022/09/25 06:26:06;;;;;;;10.45;4.05;;;;;;;10.74;100.00;101450.66;5060733;28;20098;-55
2022/09/25 06:28:34;;;;;;;6.78;3.65;;;;;;;10.74;100.00;101448.75;5061152;28;20064;-51
2022/09/25 06:31:03;;;;;;;9.45;4.00;;;;;;;10.74;100.00;101450.66;5061777;28;20563;-50
2022/09/25 06:33:31;;;;;;;5.47;3.50;;;;;;;10.73;100.00;101449.84;5072449;28;20032;-48
2022/09/25 06:36:00;;;;;;;7.47;3.78;;;;;;;10.73;100.00;101447.13;5071240;28;20057;-49
2022/09/25 06:38:28;;;;;;;6.88;3.50;;;;;;;10.75;100.00;101444.13;5070234;28;20526;-49
2022/09/25 06:40:57;;;;;;;5.75;3.30;;;;;;;10.77;100.00;101450.16;5060783;28;20045;-52
2022/09/25 06:43:27;;;;;;;6.10;3.50;;;;;;;10.75;100.00;101452.31;5062851;28;20065;-53
2022/09/25 06:45:59;;;;;;;5.97;3.58;;;;;;;10.74;100.00;101450.66;5064299;28;20045;-54
2022/09/25 06:48:28;;;;;;;8.25;4.13;;;;;;;10.71;100.00;101457.44;5061174;28;20075;-54
2022/09/25 06:51:00;;;;;;;10.73;4.25;;;;;;;10.73;100.00;101454.50;5072486;28;20422;-50
2022/09/25 06:53:27;;;;;;;6.35;3.55;;;;;;;10.76;100.00;101453.97;5057255;28;20041;-51
2022/09/25 06:55:58;;;;;;;7.55;3.80;;;;;;;10.81;100.00;101459.47;5059714;28;20113;-52
2022/09/25 06:58:27;;;;;;;7.88;3.88;;;;;;;10.81;100.00;101456.75;5040845;28;20040;-51
2022/09/25 07:00:56;;;;;;;6.78;3.88;;;;;;;10.85;100.00;101460.63;5072102;28;20086;-49
2022/09/25 07:06:13;;;;;;;12.98;4.53;;;;;;;10.92;100.00;101458.53;5064863;28;20045;-51
2022/09/25 07:08:42;;;;;;;7.50;4.25;;;;;;;10.94;100.00;101464.53;5059408;28;20045;-48
2022/09/25 07:11:18;;;;;;;8.32;3.70;;;;;;;10.97;100.00;101466.78;5065265;28;20074;-51
2022/09/25 07:13:46;;;;;;;6.70;3.47;;;;;;;11.01;100.00;101469.78;5071573;28;20113;-51
2022/09/25 07:16:16;;;;;;;7.15;3.63;;;;;;;11.04;100.00;101467.41;5067842;28;20051;-50
2022/09/25 07:18:45;;;;;;;5.80;3.45;;;;;;;11.09;100.00;101464.72;5052925;28;20041;-50
2022/09/25 07:21:18;;;;;;;6.85;3.47;;;;;;;11.11;100.00;101461.72;5071875;28;20519;-51
2022/09/25 07:23:49;;;;;;;4.80;3.28;;;;;;;11.16;100.00;101469.13;5071606;28;20082;-49
2022/09/25 07:26:25;;;;;;;8.15;3.40;;;;;;;11.21;100.00;101463.78;5069453;28;21535;-51
2022/09/25 07:28:59;;;;;;;9.05;3.45;;;;;;;11.25;100.00;101465.69;5068293;28;20048;-54
2022/09/25 07:31:36;;;;;;;6.40;3.58;;;;;;;11.29;100.00;101468.75;5043007;28;20045;-51
2022/09/25 07:34:08;;;;;;;9.00;3.70;;;;;;;11.30;100.00;101465.78;5062802;28;20051;-54
2022/09/25 07:36:41;;;;;;;9.70;3.90;;;;;;;11.32;100.00;101468.22;5067725;28;20056;-51
2022/09/25 07:39:09;;;;;;;7.53;3.90;;;;;;;11.35;100.00;101470.44;5057819;28;20029;-51
2022/09/25 07:41:42;;;;;;;7.07;3.72;;;;;;;11.38;100.00;101472.66;5064595;28;20051;-54
2022/09/25 07:44:10;;;;;;;9.52;3.75;;;;;;;11.41;100.00;101465.88;5053924;28;20102;-52
2022/09/25 07:46:56;;;;;;;8.25;4.25;;;;;;;11.45;100.00;101476.03;5068253;28;20064;-55
2022/09/25 07:49:24;;;;;;;9.98;4.03;;;;;;;11.48;100.00;101475.50;5071459;28;20044;-53
2022/09/25 07:51:52;;;;;;;9.38;3.88;;;;;;;11.49;100.00;101477.13;5073814;28;20040;-54
2022/09/25 07:54:19;;;;;;;7.80;3.72;;;;;;;11.50;100.00;101470.59;5065066;28;20055;-51
2022/09/25 07:56:47;;;;;;;9.98;3.65;;;;;;;11.52;100.00;101476.63;5067861;28;20040;-54
2022/09/25 07:59:14;;;;;;;7.78;3.65;;;;;;;11.54;100.00;101479.09;5063172;28;20041;-53
2022/09/25 08:01:42;;;;;;;9.52;3.72;;;;;;;11.58;100.00;101465.75;5056922;28;20059;-54
2022/09/25 08:04:16;;;;;;;8.05;3.42;;;;;;;11.60;100.00;101469.88;5067854;28;20051;-53
2022/09/25 08:06:43;;;;;;;10.50;3.92;;;;;;;11.64;100.00;101470.16;5068989;28;20105;-52
2022/09/25 08:09:11;;;;;;;8.80;3.65;;;;;;;11.66;100.00;101462.56;5072677;28;20053;-52
2022/09/25 08:11:39;;;;;;;9.05;3.50;;;;;;;11.68;100.00;101463.94;5072566;28;20421;-54
2022/09/25 08:14:07;;;;;;;10.20;3.22;;;;;;;11.72;100.00;101462.34;5071274;28;20048;-54
2022/09/25 08:16:34;;;;;;;10.68;3.45;;;;;;;11.78;100.00;101460.47;5069336;28;20082;-51
2022/09/25 08:19:03;;;;;;;11.15;3.75;;;;;;;11.84;100.00;101464.91;5071950;28;20044;-53
2022/09/25 08:21:30;;;;;;;10.52;3.08;;;;;;;11.87;100.00;101467.13;5061187;28;20045;-52
2022/09/25 08:23:59;;;;;;;7.85;2.95;;;;;;;11.90;100.00;101469.34;5069388;28;20498;-51
2022/09/25 08:26:28;;;;;;;9.30;3.05;;;;;;;11.96;100.00;101463.94;5069932;28;20040;-55
2022/09/25 08:28:55;;;;;;;14.25;3.40;;;;;;;11.98;100.00;101468.06;5063686;28;20028;-54
2022/09/25 08:31:23;;;;;;;9.93;2.95;;;;;;;12.01;100.00;101462.06;5049973;28;20102;-50
2022/09/25 08:33:53;;;;;;;10.00;3.30;;;;;;;12.08;100.00;101459.09;5067071;28;20100;-50
2022/09/25 08:36:21;;;;;;;9.05;3.13;;;;;;;12.12;100.00;101460.22;5058612;28;20045;-50
2022/09/25 08:38:50;;;;;;;10.02;2.90;;;;;;;12.14;100.00;101466.22;5052952;28;20041;-51
2022/09/25 08:41:27;;;;;;;7.97;2.70;;;;;;;12.17;100.00;101457.53;5065558;28;20063;-51
2022/09/25 08:44:22;;;;;;;10.32;2.63;;;;;;;12.20;100.00;101462.47;5053906;28;20148;-49
2022/09/25 08:50:20;;;;;;;9.35;2.60;;;;;;;12.29;100.00;101466.34;5060682;28;20336;-55
2022/09/25 08:52:51;;;;;;;10.15;2.50;;;;;;;12.34;100.00;101469.13;5072158;28;20575;-52
2022/09/25 08:55:18;;;;;;;8.68;2.63;;;;;;;12.39;100.00;101465.59;5051880;28;20131;-53
2022/09/25 08:57:46;;;;;;;12.63;3.17;;;;;;;12.42;100.00;101469.72;5063998;28;20153;-52
2022/09/25 09:00:20;;;;;;;13.68;2.97;;;;;;;12.44;100.00;101462.06;5063601;28;20460;-53
2022/09/25 09:02:52;;;;;;;8.88;2.50;;;;;;;12.46;100.00;101465.34;5072228;28;20048;-51
2022/09/25 09:05:28;;;;;;;7.68;2.50;;;;;;;12.49;100.00;101470.28;5072461;28;20033;-53
2022/09/25 09:08:19;;;;;;;10.30;3.03;;;;;;;12.50;100.00;101463.72;5059406;28;20041;-51
2022/09/25 09:11:02;;;;;;;11.23;2.72;;;;;;;12.53;100.00;101466.78;5064692;28;20050;-54
2022/09/25 09:13:45;;;;;;;9.38;2.80;;;;;;;12.60;100.00;101457.50;5072812;28;20074;-50
2022/09/25 09:16:25;;;;;;;10.18;2.60;;;;;;;12.62;100.00;101450.66;5064859;28;20491;-52
2022/09/25 09:18:53;;;;;;;8.55;2.15;;;;;;;12.65;100.00;101461.09;5072400;28;20499;-53
2022/09/25 09:21:33;;;;;;;8.25;2.30;;;;;;;12.69;100.00;101453.97;5072011;28;20044;-52
2022/09/25 09:24:07;;;;;;;9.43;2.60;;;;;;;12.72;100.00;101448.00;5061920;28;20563;-54
2022/09/25 09:26:53;;;;;;;6.28;2.15;;;;;;;12.79;95.55;101451.31;5068813;28;20041;-52
2022/09/25 09:29:27;;;;;;;7.75;2.47;;;;;;;12.86;97.49;101455.69;5053208;28;20049;-52
2022/09/25 09:32:16;;;;;;;10.80;2.45;;;;;;;12.86;95.74;101447.50;5057368;28;20041;-51
2022/09/25 09:34:46;;;;;;;10.07;2.47;;;;;;;12.88;94.53;101445.31;5072284;28;20813;-52
2022/09/25 09:37:54;;;;;;;7.10;2.25;;;;;;;12.93;92.31;101439.84;5062496;28;20041;-50
2022/09/25 09:40:45;;;;;;;7.70;1.85;;;;;;;12.97;91.26;101454.66;5067673;28;20502;-54
2022/09/25 09:43:23;;;;;;;6.55;2.05;;;;;;;12.98;88.49;101440.69;5051728;28;20098;-51
2022/09/25 09:45:58;;;;;;;8.15;2.25;;;;;;;12.98;86.74;101445.34;5067218;28;20040;-52
2022/09/25 09:48:44;;;;;;;10.07;2.05;;;;;;;13.04;87.25;101447.00;5051561;28;20037;-54
2022/09/25 09:51:20;;;;;;;7.18;2.15;;;;;;;13.10;87.66;101447.84;5069582;28;20086;-51
2022/09/25 09:54:00;;;;;;;9.32;2.28;;;;;;;13.13;88.23;101442.66;5072937;28;20045;-51
2022/09/25 09:56:31;;;;;;;5.25;1.95;;;;;;;13.13;88.88;101439.09;5071680;28;20090;-50
2022/09/25 09:59:19;;;;;;;6.70;1.90;;;;;;;13.10;87.62;101437.72;5058258;28;20114;-54
2022/09/25 10:01:57;;;;;;;7.75;1.90;;;;;;;13.12;86.70;101437.44;5071509;28;20033;-51
2022/09/25 10:04:30;;;;;;;7.05;2.20;;;;;;;13.14;87.85;101433.34;5072830;28;20036;-52
2022/09/25 10:07:08;;;;;;;9.70;2.80;;;;;;;13.17;89.27;101430.06;5071495;28;20056;-55
2022/09/25 10:09:36;;;;;;;8.45;2.63;;;;;;;13.21;89.56;101424.88;5070501;28;20048;-55
2022/09/25 10:12:23;;;;;;;14.45;2.55;;;;;;;13.27;85.54;101432.03;5051388;28;20052;-51
2022/09/25 10:14:51;;;;;;;8.38;1.90;;;;;;;13.31;84.33;101424.13;5068832;28;20045;-55
2022/09/25 10:17:23;;;;;;;5.80;1.88;;;;;;;13.33;84.07;101424.66;5063083;28;20037;-53
2022/09/25 10:19:59;;;;;;;7.53;1.98;;;;;;;13.36;85.43;101424.13;5069240;28;20101;-54
2022/09/25 10:22:32;;;;;;;12.27;2.20;;;;;;;13.36;85.22;101419.47;5071473;28;20081;-52
2022/09/25 10:25:01;;;;;;;8.18;1.90;;;;;;;13.38;83.98;101427.41;5058005;28;20567;-53
2022/09/25 10:27:44;;;;;;;6.35;1.80;;;;;;;13.39;82.64;101421.63;5071876;28;20089;-52
2022/09/25 10:30:17;;;;;;;6.53;2.08;;;;;;;13.44;83.41;101420.81;5066384;28;20049;-54
2022/09/25 10:33:00;;;;;;;8.68;2.13;;;;;;;13.47;83.27;101431.25;5072155;28;20045;-50
2022/09/25 10:35:30;;;;;;;7.82;1.67;;;;;;;13.54;81.61;101426.34;5071428;28;20253;-51
2022/09/25 10:38:00;;;;;;;10.48;1.88;;;;;;;13.65;81.30;101427.16;5070638;28;20040;-51
2022/09/25 10:40:33;;;;;;;5.78;2.00;;;;;;;13.70;79.68;101426.31;5053857;28;20102;-51
2022/09/25 10:43:23;;;;;;;6.00;1.88;;;;;;;13.75;76.88;101416.19;5065259;28;20056;-50
2022/09/25 10:46:10;;;;;;;5.80;1.58;;;;;;;13.84;73.45;101430.16;5053491;28;20056;-51
2022/09/25 10:51:25;;;;;;;5.75;1.40;;;;;;;13.85;74.15;101423.56;5060986;28;20063;-50
2022/09/25 10:54:14;;;;;;;6.30;1.77;;;;;;;13.85;75.37;101429.03;5077039;28;20074;-53
2022/09/25 10:56:42;;;;;;;6.80;1.85;;;;;;;13.85;75.66;101416.19;5074690;28;20433;-53
2022/09/25 10:59:19;;;;;;;7.32;1.75;;;;;;;13.90;77.06;101411.78;5072025;28;20044;-55
2022/09/25 11:01:49;;;;;;;6.88;1.75;;;;;;;13.88;77.15;101414.81;5070535;28;20036;-54
2022/09/25 11:04:30;;;;;;;6.57;2.17;;;;;;;13.88;72.28;101414.81;5065927;28;20415;-55
2022/09/25 11:07:01;;;;;;;8.32;1.95;;;;;;;13.85;71.12;101404.38;5060527;28;20445;-51
2022/09/25 11:09:31;;;;;;;7.20;1.83;;;;;;;13.84;72.42;101416.47;5071308;28;20037;-53
2022/09/25 11:12:22;;;;;;;7.72;2.00;;;;;;;13.83;73.75;101412.09;5063369;28;20135;-55
2022/09/25 11:15:00;;;;;;;7.28;1.83;;;;;;;13.88;74.91;101403.88;5073814;28;20059;-52
2022/09/25 11:17:39;;;;;;;6.00;1.90;;;;;;;13.96;75.51;101411.50;5074467;28;20041;-50
2022/09/25 11:20:16;;;;;;;5.68;1.90;;;;;;;14.05;75.24;101412.59;5067398;28;20117;-51
2022/09/25 11:22:58;;;;;;;5.47;1.80;;;;;;;14.11;76.64;101420.81;5073305;28;20372;-50
2022/09/25 11:25:38;;;;;;;6.25;1.92;;;;;;;14.09;73.50;101415.59;5073948;28;20045;-52
2022/09/25 11:28:29;;;;;;;5.13;1.40;;;;;;;14.02;72.74;101415.91;5066824;28;20078;-54
2022/09/25 11:31:02;;;;;;;6.63;2.03;;;;;;;13.95;70.83;101409.88;5057124;28;20041;-53
2022/09/25 11:33:49;;;;;;;8.30;1.75;;;;;;;13.99;71.22;101410.94;5074515;28;20089;-52
2022/09/25 11:36:28;;;;;;;7.18;1.67;;;;;;;14.02;69.37;101402.19;5067124;28;20044;-51
2022/09/25 11:41:55;;;;;;;7.82;2.05;;;;;;;14.13;70.22;101402.16;5055340;28;20119;-51
2022/09/25 11:44:34;;;;;;;8.55;2.05;;;;;;;14.17;76.25;101401.34;5045771;28;20097;-58
2022/09/25 11:47:23;;;;;;;7.07;2.00;;;;;;;14.25;79.92;101408.16;5072902;28;20112;-55
2022/09/25 11:49:53;;;;;;;5.35;2.10;;;;;;;14.30;81.50;101407.34;5065101;28;20109;-53
2022/09/25 11:52:58;;;;;;;6.28;1.60;;;;;;;14.17;81.81;101400.53;5073209;28;20494;-54
2022/09/25 11:56:05;;;;;;;5.22;1.65;;;;;;;13.96;78.91;101403.28;5074795;28;20048;-52
2022/09/25 11:58:39;;;;;;;5.22;1.52;;;;;;;13.85;80.10;101397.03;5069750;28;20036;-52
2022/09/25 12:01:16;;;;;;;9.30;2.20;;;;;;;13.80;81.90;101396.19;5061336;28;20104;-53
2022/09/25 12:03:56;;;;;;;4.63;1.80;;;;;;;13.79;83.41;101389.06;5062382;28;20510;-54